sensor_id;sensor_type;location;lat;lon;timestamp;pressure;altitude;pressure_sealevel;temperature;humidity
27304;BME280;14791;52.392;13.092;2022-09-21T00:01:35;101994.31;;;14.75;55.71
27304;BME280;14791;52.392;13.092;2022-09-21T00:04:04;101997.41;;;14.76;55.76
27304;BME280;14791;52.392;13.092;2022-09-21T00:06:33;102000.10;;;14.76;55.82
27304;BME280;14791;52.392;13.092;2022-09-21T00:09:03;101999.13;;;14.77;55.82
27304;BME280;14791;52.392;13.092;2022-09-21T00:11:35;101997.41;;;14.76;55.83
27304;BME280;14791;52.392;13.092;2022-09-21T00:14:07;101998.76;;;14.76;55.88
27304;BME280;14791;52.392;13.092;2022-09-21T00:16:38;101998.76;;;14.76;55.95
27304;BME280;14791;52.392;13.092;2022-09-21T00:19:08;101999.32;;;14.74;55.99
27304;BME280;14791;52.392;13.092;2022-09-21T00:21:37;102000.30;;;14.73;56.04
27304;BME280;14791;52.392;13.092;2022-09-21T00:24:06;102001.64;;;14.73;56.06
27304;BME280;14791;52.392;13.092;2022-09-21T00:26:35;102002.28;;;14.69;56.09
27304;BME280;14791;52.392;13.092;2022-09-21T00:29:04;102008.52;;;14.70;56.11
27304;BME280;14791;52.392;13.092;2022-09-21T00:31:34;102002.28;;;14.69;56.12
27304;BME280;14791;52.392;13.092;2022-09-21T00:34:03;102004.67;;;14.66;56.17
27304;BME280;14791;52.392;13.092;2022-09-21T00:36:34;102007.93;;;14.64;56.19
27304;BME280;14791;52.392;13.092;2022-09-21T00:39:03;102007.14;;;14.62;56.26
27304;BME280;14791;52.392;13.092;2022-09-21T00:41:33;102002.33;;;14.60;56.31
27304;BME280;14791;52.392;13.092;2022-09-21T00:44:30;102008.30;;;14.58;56.37
27304;BME280;14791;52.392;13.092;2022-09-21T00:47:13;102003.01;;;14.57;56.40
27304;BME280;14791;52.392;13.092;2022-09-21T00:49:39;102009.18;;;14.50;56.51
27304;BME280;14791;52.392;13.092;2022-09-21T00:52:10;102014.26;;;14.47;56.58
27304;BME280;14791;52.392;13.092;2022-09-21T00:54:50;102012.98;;;14.46;56.58
27304;BME280;14791;52.392;13.092;2022-09-21T00:57:21;102010.00;;;14.43;56.59
27304;BME280;14791;52.392;13.092;2022-09-21T00:59:53;102009.63;;;14.42;56.62
27304;BME280;14791;52.392;13.092;2022-09-21T01:02:22;102017.31;;;14.41;56.62
27304;BME280;14791;52.392;13.092;2022-09-21T01:04:52;102009.70;;;14.41;56.61
27304;BME280;14791;52.392;13.092;2022-09-21T01:07:25;102015.56;;;14.40;56.56
27304;BME280;14791;52.392;13.092;2022-09-21T01:09:57;102014.70;;;14.40;56.58
27304;BME280;14791;52.392;13.092;2022-09-21T01:12:41;102020.64;;;14.38;56.66
27304;BME280;14791;52.392;13.092;2022-09-21T01:20:40;102023.17;;;14.25;56.81
27304;BME280;14791;52.392;13.092;2022-09-21T01:26:03;102026.98;;;14.21;56.92
27304;BME280;14791;52.392;13.092;2022-09-21T01:31:24;102031.19;;;14.18;57.00
27304;BME280;14791;52.392;13.092;2022-09-21T01:33:54;102030.30;;;14.17;56.97
27304;BME280;14791;52.392;13.092;2022-09-21T01:36:26;102026.86;;;14.15;56.97
27304;BME280;14791;52.392;13.092;2022-09-21T01:39:03;102024.17;;;14.15;57.00
27304;BME280;14791;52.392;13.092;2022-09-21T01:41:31;102026.37;;;14.16;56.99
27304;BME280;14791;52.392;13.092;2022-09-21T01:44:03;102026.37;;;14.16;56.97
27304;BME280;14791;52.392;13.092;2022-09-21T01:46:35;102023.20;;;14.16;56.95
27304;BME280;14791;52.392;13.092;2022-09-21T01:49:14;102027.16;;;14.18;56.94
27304;BME280;14791;52.392;13.092;2022-09-21T01:51:45;102028.39;;;14.19;56.93
27304;BME280;14791;52.392;13.092;2022-09-21T01:54:17;102032.42;;;14.19;56.95
27304;BME280;14791;52.392;13.092;2022-09-21T01:56:51;102029.84;;;14.18;56.93
27304;BME280;14791;52.392;13.092;2022-09-21T02:02:08;102033.39;;;14.18;56.90
27304;BME280;14791;52.392;13.092;2022-09-21T02:04:38;102033.47;;;14.17;56.90
27304;BME280;14791;52.392;13.092;2022-09-21T02:07:07;102036.16;;;14.17;56.89
27304;BME280;14791;52.392;13.092;2022-09-21T02:09:37;102039.25;;;14.18;56.87
27304;BME280;14791;52.392;13.092;2022-09-21T02:12:07;102037.42;;;14.18;56.82
27304;BME280;14791;52.392;13.092;2022-09-21T02:14:36;102037.42;;;14.18;56.79
27304;BME280;14791;52.392;13.092;2022-09-21T02:17:29;102034.33;;;14.17;56.79
27304;BME280;14791;52.392;13.092;2022-09-21T02:20:08;102036.64;;;14.16;56.83
27304;BME280;14791;52.392;13.092;2022-09-21T02:22:48;102034.69;;;14.11;56.88
27304;BME280;14791;52.392;13.092;2022-09-21T02:25:29;102037.94;;;14.09;56.94
27304;BME280;14791;52.392;13.092;2022-09-21T02:27:49;102041.66;;;14.07;56.90
27304;BME280;14791;52.392;13.092;2022-09-21T02:30:20;102036.77;;;14.06;56.92
27304;BME280;14791;52.392;13.092;2022-09-21T02:38:11;102044.23;;;14.01;57.03
27304;BME280;14791;52.392;13.092;2022-09-21T02:40:51;102037.09;;;14.00;57.05
27304;BME280;14791;52.392;13.092;2022-09-21T02:43:26;102035.94;;;13.97;57.09
27304;BME280;14791;52.392;13.092;2022-09-21T02:46:05;102042.28;;;13.96;57.14
27304;BME280;14791;52.392;13.092;2022-09-21T02:48:54;102047.31;;;13.93;57.15
27304;BME280;14791;52.392;13.092;2022-09-21T02:51:13;102043.39;;;13.92;57.12
27304;BME280;14791;52.392;13.092;2022-09-21T02:53:42;102044.42;;;13.89;57.14
27304;BME280;14791;52.392;13.092;2022-09-21T02:56:13;102047.19;;;13.88;57.10
27304;BME280;14791;52.392;13.092;2022-09-21T02:58:53;102042.22;;;13.89;57.05
27304;BME280;14791;52.392;13.092;2022-09-21T03:01:24;102052.97;;;13.89;57.03
27304;BME280;14791;52.392;13.092;2022-09-21T03:03:54;102047.73;;;13.86;57.06
27304;BME280;14791;52.392;13.092;2022-09-21T03:06:23;102042.78;;;13.87;57.02
27304;BME280;14791;52.392;13.092;2022-09-21T03:08:52;102045.46;;;13.87;56.96
27304;BME280;14791;52.392;13.092;2022-09-21T03:11:21;102053.90;;;13.88;56.94
27304;BME280;14791;52.392;13.092;2022-09-21T03:13:50;102054.86;;;13.87;56.90
27304;BME280;14791;52.392;13.092;2022-09-21T03:16:19;102062.36;;;13.89;56.82
27304;BME280;14791;52.392;13.092;2022-09-21T03:18:50;102061.02;;;13.89;56.71
27304;BME280;14791;52.392;13.092;2022-09-21T03:21:19;102059.68;;;13.89;56.57
27304;BME280;14791;52.392;13.092;2022-09-21T03:23:48;102065.98;;;13.88;56.50
27304;BME280;14791;52.392;13.092;2022-09-21T03:26:17;102068.67;;;13.88;56.45
27304;BME280;14791;52.392;13.092;2022-09-21T03:28:48;102065.20;;;13.86;56.46
27304;BME280;14791;52.392;13.092;2022-09-21T03:31:17;102067.87;;;13.86;56.47
27304;BME280;14791;52.392;13.092;2022-09-21T03:33:46;102066.16;;;13.85;56.52
27304;BME280;14791;52.392;13.092;2022-09-21T03:36:16;102062.20;;;13.83;56.54
27304;BME280;14791;52.392;13.092;2022-09-21T03:38:44;102066.34;;;13.81;56.55
27304;BME280;14791;52.392;13.092;2022-09-21T03:41:13;102070.51;;;13.78;56.64
27304;BME280;14791;52.392;13.092;2022-09-21T03:43:42;102073.75;;;13.76;56.71
27304;BME280;14791;52.392;13.092;2022-09-21T03:46:11;102072.09;;;13.74;56.71
27304;BME280;14791;52.392;13.092;2022-09-21T03:48:40;102073.13;;;13.71;56.62
27304;BME280;14791;52.392;13.092;2022-09-21T03:51:09;102072.34;;;13.69;56.58
27304;BME280;14791;52.392;13.092;2022-09-21T03:53:38;102067.08;;;13.68;56.59
27304;BME280;14791;52.392;13.092;2022-09-21T03:56:07;102079.05;;;13.69;56.55
27304;BME280;14791;52.392;13.092;2022-09-21T03:58:35;102075.02;;;13.69;56.46
27304;BME280;14791;52.392;13.092;2022-09-21T04:01:04;102077.33;;;13.68;56.37
27304;BME280;14791;52.392;13.092;2022-09-21T04:03:33;102083.66;;;13.67;56.41
27304;BME280;14791;52.392;13.092;2022-09-21T04:06:10;102081.43;;;13.67;56.41
27304;BME280;14791;52.392;13.092;2022-09-21T04:08:39;102078.74;;;13.67;56.43
27304;BME280;14791;52.392;13.092;2022-09-21T04:11:14;102080.64;;;13.65;56.42
27304;BME280;14791;52.392;13.092;2022-09-21T04:13:43;102083.33;;;13.65;56.36
27304;BME280;14791;52.392;13.092;2022-09-21T04:16:14;102076.30;;;13.62;56.44
27304;BME280;14791;52.392;13.092;2022-09-21T04:18:44;102082.63;;;13.61;56.50
27304;BME280;14791;52.392;13.092;2022-09-21T04:21:16;102079.09;;;13.60;56.54
27304;BME280;14791;52.392;13.092;2022-09-21T04:23:45;102080.91;;;13.60;56.52
27304;BME280;14791;52.392;13.092;2022-09-21T04:26:23;102087.14;;;13.60;56.53
27304;BME280;14791;52.392;13.092;2022-09-21T04:28:53;102088.55;;;13.59;56.54
27304;BME280;14791;52.392;13.092;2022-09-21T04:31:24;102092.27;;;13.56;56.55
27304;BME280;14791;52.392;13.092;2022-09-21T04:33:55;102087.87;;;13.55;56.62
27304;BME280;14791;52.392;13.092;2022-09-21T04:36:26;102085.80;;;13.52;56.68
27304;BME280;14791;52.392;13.092;2022-09-21T04:38:56;102085.87;;;13.50;56.75
27304;BME280;14791;52.392;13.092;2022-09-21T04:41:25;102085.17;;;13.47;56.83
27304;BME280;14791;52.392;13.092;2022-09-21T04:43:54;102084.32;;;13.46;56.87
27304;BME280;14791;52.392;13.092;2022-09-21T04:46:23;102088.83;;;13.46;56.88
27304;BME280;14791;52.392;13.092;2022-09-21T04:48:52;102087.48;;;13.46;56.88
27304;BME280;14791;52.392;13.092;2022-09-21T04:51:21;102090.72;;;13.44;56.85
27304;BME280;14791;52.392;13.092;2022-09-21T04:53:50;102088.03;;;13.44;56.87
27304;BME280;14791;52.392;13.092;2022-09-21T04:56:19;102096.09;;;13.44;56.85
27304;BME280;14791;52.392;13.092;2022-09-21T04:58:48;102094.74;;;13.44;56.88
27304;BME280;14791;52.392;13.092;2022-09-21T05:01:17;102097.42;;;13.44;56.88
27304;BME280;14791;52.392;13.092;2022-09-21T05:03:45;102097.81;;;13.45;56.85
27304;BME280;14791;52.392;13.092;2022-09-21T05:06:14;102097.42;;;13.44;56.84
27304;BME280;14791;52.392;13.092;2022-09-21T05:08:43;102101.04;;;13.43;56.88
27304;BME280;14791;52.392;13.092;2022-09-21T05:11:30;102103.83;;;13.41;56.94
27304;BME280;14791;52.392;13.092;2022-09-21T05:13:59;102109.81;;;13.37;57.04
27304;BME280;14791;52.392;13.092;2022-09-21T05:16:27;102103.58;;;13.37;57.07
27304;BME280;14791;52.392;13.092;2022-09-21T05:18:56;102101.76;;;13.37;57.09
27304;BME280;14791;52.392;13.092;2022-09-21T05:21:25;102110.77;;;13.36;57.10
27304;BME280;14791;52.392;13.092;2022-09-21T05:23:54;102116.14;;;13.36;57.21
27304;BME280;14791;52.392;13.092;2022-09-21T05:26:24;102115.17;;;13.37;57.27
27304;BME280;14791;52.392;13.092;2022-09-21T05:28:53;102115.11;;;13.39;57.28
27304;BME280;14791;52.392;13.092;2022-09-21T05:31:40;102120.38;;;13.40;57.30
27304;BME280;14791;52.392;13.092;2022-09-21T05:39:30;102130.19;;;13.42;57.54
27304;BME280;14791;52.392;13.092;2022-09-21T05:42:00;102130.19;;;13.42;57.65
27304;BME280;14791;52.392;13.092;2022-09-21T05:44:29;102129.16;;;13.44;57.63
27304;BME280;14791;52.392;13.092;2022-09-21T05:53:03;102135.15;;;13.49;57.73
27304;BME280;14791;52.392;13.092;2022-09-21T05:55:34;102137.90;;;13.48;57.86
27304;BME280;14791;52.392;13.092;2022-09-21T05:58:20;102143.27;;;13.48;58.02
27304;BME280;14791;52.392;13.092;2022-09-21T06:03:50;102144.69;;;13.55;58.13
27304;BME280;14791;52.392;13.092;2022-09-21T06:06:20;102149.13;;;13.56;58.18
27304;BME280;14791;52.392;13.092;2022-09-21T06:08:49;102151.48;;;13.62;58.11
27304;BME280;14791;52.392;13.092;2022-09-21T06:11:18;102152.52;;;13.68;58.09
27304;BME280;14791;52.392;13.092;2022-09-21T06:13:47;102148.56;;;13.75;58.06
27304;BME280;14791;52.392;13.092;2022-09-21T06:16:16;102147.28;;;13.82;58.03
27304;BME280;14791;52.392;13.092;2022-09-21T06:18:45;102155.03;;;13.89;57.91
27304;BME280;14791;52.392;13.092;2022-09-21T06:21:14;102151.14;;;13.94;57.89
27304;BME280;14791;52.392;13.092;2022-09-21T06:23:43;102141.87;;;14.00;57.89
27304;BME280;14791;52.392;13.092;2022-09-21T06:26:11;102148.83;;;14.04;57.90
27304;BME280;14791;52.392;13.092;2022-09-21T06:28:40;102153.84;;;14.10;57.85
27304;BME280;14791;52.392;13.092;2022-09-21T06:31:09;102154.50;;;14.15;57.76
27304;BME280;14791;52.392;13.092;2022-09-21T06:33:38;102157.39;;;14.19;57.67
27304;BME280;14791;52.392;13.092;2022-09-21T06:36:07;102159.03;;;14.22;57.53
27304;BME280;14791;52.392;13.092;2022-09-21T06:38:36;102156.28;;;14.23;57.45
27304;BME280;14791;52.392;13.092;2022-09-21T06:41:05;102155.31;;;14.24;57.44
27304;BME280;14791;52.392;13.092;2022-09-21T06:43:34;102153.89;;;14.26;57.39
27304;BME280;14791;52.392;13.092;2022-09-21T06:46:03;102157.86;;;14.28;57.38
27304;BME280;14791;52.392;13.092;2022-09-21T06:48:33;102161.41;;;14.28;57.34
27304;BME280;14791;52.392;13.092;2022-09-21T06:51:04;102162.67;;;14.30;57.29
27304;BME280;14791;52.392;13.092;2022-09-21T06:53:33;102161.33;;;14.30;57.31
27304;BME280;14791;52.392;13.092;2022-09-21T06:56:04;102157.67;;;14.31;57.35
27304;BME280;14791;52.392;13.092;2022-09-21T06:58:34;102160.19;;;14.34;57.41
27304;BME280;14791;52.392;13.092;2022-09-21T07:01:09;102161.08;;;14.34;57.52
27304;BME280;14791;52.392;13.092;2022-09-21T07:03:39;102164.94;;;14.37;57.57
27304;BME280;14791;52.392;13.092;2022-09-21T07:06:10;102170.62;;;14.40;57.71
27304;BME280;14791;52.392;13.092;2022-09-21T07:08:41;102170.36;;;14.44;57.92
27304;BME280;14791;52.392;13.092;2022-09-21T07:11:12;102172.63;;;14.52;58.02
27304;BME280;14791;52.392;13.092;2022-09-21T07:13:41;102178.46;;;14.60;58.05
27304;BME280;14791;52.392;13.092;2022-09-21T07:16:10;102184.78;;;14.68;58.01
27304;BME280;14791;52.392;13.092;2022-09-21T07:18:41;102181.25;;;14.75;57.91
27304;BME280;14791;52.392;13.092;2022-09-21T07:21:11;102191.11;;;14.83;57.93
27304;BME280;14791;52.392;13.092;2022-09-21T07:23:41;102180.77;;;14.91;57.93
27304;BME280;14791;52.392;13.092;2022-09-21T07:26:12;102182.94;;;15.00;57.83
27304;BME280;14791;52.392;13.092;2022-09-21T07:28:41;102191.45;;;15.08;57.85
27304;BME280;14791;52.392;13.092;2022-09-21T07:31:13;102193.22;;;15.17;57.78
27304;BME280;14791;52.392;13.092;2022-09-21T07:33:43;102194.11;;;15.24;57.70
27304;BME280;14791;52.392;13.092;2022-09-21T07:36:15;102196.75;;;15.33;57.60
27304;BME280;14791;52.392;13.092;2022-09-21T07:38:44;102199.47;;;15.40;57.34
27304;BME280;14791;52.392;13.092;2022-09-21T07:41:13;102195.05;;;15.46;57.13
27304;BME280;14791;52.392;13.092;2022-09-21T07:43:42;102194.78;;;15.51;56.89
27304;BME280;14791;52.392;13.092;2022-09-21T07:46:13;102189.31;;;15.52;56.77
27304;BME280;14791;52.392;13.092;2022-09-21T07:48:42;102190.88;;;15.57;56.75
27304;BME280;14791;52.392;13.092;2022-09-21T07:51:12;102189.98;;;15.56;56.70
27304;BME280;14791;52.392;13.092;2022-09-21T07:53:43;102189.05;;;15.57;56.68
27304;BME280;14791;52.392;13.092;2022-09-21T07:56:16;102194.35;;;15.59;56.77
27304;BME280;14791;52.392;13.092;2022-09-21T07:58:46;102192.59;;;15.58;56.92
27304;BME280;14791;52.392;13.092;2022-09-21T08:01:38;102195.09;;;15.61;57.07
27304;BME280;14791;52.392;13.092;2022-09-21T08:04:09;102192.81;;;15.62;57.29
27304;BME280;14791;52.392;13.092;2022-09-21T08:06:38;102192.53;;;15.66;57.33
27304;BME280;14791;52.392;13.092;2022-09-21T08:09:07;102195.85;;;15.71;57.33
27304;BME280;14791;52.392;13.092;2022-09-21T08:11:36;102195.01;;;15.78;57.27
27304;BME280;14791;52.392;13.092;2022-09-21T08:14:06;102201.84;;;15.84;57.28
27304;BME280;14791;52.392;13.092;2022-09-21T08:16:37;102199.64;;;15.90;57.25
27304;BME280;14791;52.392;13.092;2022-09-21T08:19:06;102200.60;;;15.97;57.21
27304;BME280;14791;52.392;13.092;2022-09-21T08:21:34;102200.81;;;16.01;57.23
27304;BME280;14791;52.392;13.092;2022-09-21T08:24:03;102196.41;;;16.07;57.22
27304;BME280;14791;52.392;13.092;2022-09-21T08:26:32;102202.25;;;16.13;57.31
27304;BME280;14791;52.392;13.092;2022-09-21T08:29:02;102205.07;;;16.19;57.31
27304;BME280;14791;52.392;13.092;2022-09-21T08:31:31;102201.60;;;16.24;57.37
27304;BME280;14791;52.392;13.092;2022-09-21T08:34:00;102202.09;;;16.31;57.47
27304;BME280;14791;52.392;13.092;2022-09-21T08:36:29;102205.66;;;16.38;57.59
27304;BME280;14791;52.392;13.092;2022-09-21T08:38:58;102203.32;;;16.47;57.70
27304;BME280;14791;52.392;13.092;2022-09-21T08:44:23;102203.51;;;16.65;57.75
27304;BME280;14791;52.392;13.092;2022-09-21T08:46:45;102198.59;;;16.72;57.76
27304;BME280;14791;52.392;13.092;2022-09-21T08:49:22;102206.50;;;16.82;57.83
27304;BME280;14791;52.392;13.092;2022-09-21T08:52:01;102196.95;;;16.91;57.82
27304;BME280;14791;52.392;13.092;2022-09-21T08:57:06;102200.94;;;17.12;57.71
27304;BME280;14791;52.392;13.092;2022-09-21T08:59:35;102207.45;;;17.22;57.63
27304;BME280;14791;52.392;13.092;2022-09-21T09:05:00;102204.16;;;17.44;57.46
27304;BME280;14791;52.392;13.092;2022-09-21T09:13:18;102197.75;;;17.73;57.25
27304;BME280;14791;52.392;13.092;2022-09-21T09:18:41;102200.77;;;17.88;56.87
27304;BME280;14791;52.392;13.092;2022-09-21T09:24:02;102201.16;;;18.02;56.81
27304;BME280;14791;52.392;13.092;2022-09-21T09:26:50;102199.86;;;18.07;56.84
27304;BME280;14791;52.392;13.092;2022-09-21T09:29:26;102206.09;;;18.15;56.72
27304;BME280;14791;52.392;13.092;2022-09-21T09:31:54;102199.75;;;18.22;56.57
27304;BME280;14791;52.392;13.092;2022-09-21T09:37:13;102203.59;;;18.38;56.38
27304;BME280;14791;52.392;13.092;2022-09-21T09:39:32;102202.66;;;18.44;56.36
27304;BME280;14791;52.392;13.092;2022-09-21T09:50:34;102206.06;;;18.72;56.08
27304;BME280;14791;52.392;13.092;2022-09-21T09:53:09;102205.92;;;18.81;55.96
27304;BME280;14791;52.392;13.092;2022-09-21T09:55:43;102210.40;;;18.87;55.98
27304;BME280;14791;52.392;13.092;2022-09-21T09:58:15;102211.44;;;18.98;55.79
27304;BME280;14791;52.392;13.092;2022-09-21T10:00:39;102206.86;;;19.11;55.60
27304;BME280;14791;52.392;13.092;2022-09-21T10:03:17;102207.29;;;19.23;55.42
27304;BME280;14791;52.392;13.092;2022-09-21T10:05:46;102208.47;;;19.38;55.29
27304;BME280;14791;52.392;13.092;2022-09-21T10:08:42;102205.78;;;19.49;54.96
27304;BME280;14791;52.392;13.092;2022-09-21T10:11:14;102203.72;;;19.58;54.68
27304;BME280;14791;52.392;13.092;2022-09-21T10:13:45;102205.23;;;19.62;54.52
27304;BME280;14791;52.392;13.092;2022-09-21T10:18:55;102198.03;;;19.80;54.37
27304;BME280;14791;52.392;13.092;2022-09-21T10:21:37;102203.38;;;19.92;54.44
27304;BME280;14791;52.392;13.092;2022-09-21T10:26:54;102205.50;;;20.23;54.32
27304;BME280;14791;52.392;13.092;2022-09-21T10:32:17;102195.07;;;20.57;53.40
27304;BME280;14791;52.392;13.092;2022-09-21T10:34:35;102202.34;;;20.74;52.95
27304;BME280;14791;52.392;13.092;2022-09-21T10:37:29;102205.16;;;20.84;52.46
27304;BME280;14791;52.392;13.092;2022-09-21T10:39:55;102206.47;;;20.95;52.16
27304;BME280;14791;52.392;13.092;2022-09-21T10:42:24;102206.09;;;20.99;51.92
27304;BME280;14791;52.392;13.092;2022-09-21T10:45:06;102202.38;;;21.06;51.59
27304;BME280;14791;52.392;13.092;2022-09-21T10:47:42;102198.05;;;21.15;51.49
27304;BME280;14791;52.392;13.092;2022-09-21T10:50:29;102189.98;;;21.19;51.44
27304;BME280;14791;52.392;13.092;2022-09-21T10:55:51;102184.39;;;21.32;51.44
27304;BME280;14791;52.392;13.092;2022-09-21T10:58:14;102180.94;;;21.41;51.41
27304;BME280;14791;52.392;13.092;2022-09-21T11:00:46;102182.37;;;21.51;50.95
27304;BME280;14791;52.392;13.092;2022-09-21T11:03:40;102181.59;;;21.60;50.39
27304;BME280;14791;52.392;13.092;2022-09-21T11:06:23;102174.98;;;21.68;50.13
27304;BME280;14791;52.392;13.092;2022-09-21T11:11:36;102173.45;;;21.75;49.48
27304;BME280;14791;52.392;13.092;2022-09-21T11:16:53;102177.13;;;21.80;49.03
27304;BME280;14791;52.392;13.092;2022-09-21T11:22:08;102174.64;;;21.82;48.59
27304;BME280;14791;52.392;13.092;2022-09-21T11:27:38;102170.05;;;21.88;48.60
27304;BME280;14791;52.392;13.092;2022-09-21T11:30:16;102168.02;;;21.91;48.69
27304;BME280;14791;52.392;13.092;2022-09-21T11:33:13;102175.77;;;22.01;48.59
27304;BME280;14791;52.392;13.092;2022-09-21T11:50:51;102170.15;;;22.08;47.21
27304;BME280;14791;52.392;13.092;2022-09-21T11:52:36;102167.20;;;22.05;47.22
27304;BME280;14791;52.392;13.092;2022-09-21T11:55:25;102163.59;;;22.05;47.16
27304;BME280;14791;52.392;13.092;2022-09-21T12:00:36;102163.81;;;22.07;47.13
27304;BME280;14791;52.392;13.092;2022-09-21T12:03:16;102157.72;;;22.15;47.01
27304;BME280;14791;52.392;13.092;2022-09-21T12:06:04;102163.75;;;22.24;46.74
27304;BME280;14791;52.392;13.092;2022-09-21T12:14:17;102148.28;;;22.50;46.52
27304;BME280;14791;52.392;13.092;2022-09-21T12:17:06;102155.11;;;22.60;46.22
27304;BME280;14791;52.392;13.092;2022-09-21T12:22:33;102143.11;;;22.82;45.21
27304;BME280;14791;52.392;13.092;2022-09-21T12:25:01;102140.65;;;22.94;45.06
27304;BME280;14791;52.392;13.092;2022-09-21T12:27:36;102144.35;;;23.08;45.29
27304;BME280;14791;52.392;13.092;2022-09-21T12:30:18;102144.98;;;23.45;45.45
27304;BME280;14791;52.392;13.092;2022-09-21T12:35:39;102141.14;;;24.56;44.76
27304;BME280;14791;52.392;13.092;2022-09-21T12:38:24;102131.09;;;25.20;44.52
27304;BME280;14791;52.392;13.092;2022-09-21T12:40:55;102131.34;;;25.97;43.71
27304;BME280;14791;52.392;13.092;2022-09-21T12:43:40;102133.91;;;26.63;42.34
27304;BME280;14791;52.392;13.092;2022-09-21T12:46:16;102131.10;;;27.22;41.09
27304;BME280;14791;52.392;13.092;2022-09-21T12:48:40;102133.64;;;27.81;40.24
27304;BME280;14791;52.392;13.092;2022-09-21T12:53:54;102134.89;;;28.96;38.89
27304;BME280;14791;52.392;13.092;2022-09-21T12:56:44;102130.12;;;29.40;38.70
27304;BME280;14791;52.392;13.092;2022-09-21T13:10:59;102137.09;;;28.38;37.02
27304;BME280;14791;52.392;13.092;2022-09-21T13:13:45;102135.70;;;27.91;37.18
27304;BME280;14791;52.392;13.092;2022-09-21T13:16:36;102130.93;;;27.48;37.31
27304;BME280;14791;52.392;13.092;2022-09-21T13:19:16;102124.73;;;27.09;37.60
27304;BME280;14791;52.392;13.092;2022-09-21T13:21:40;102127.77;;;26.77;37.56
27304;BME280;14791;52.392;13.092;2022-09-21T13:24:25;102124.63;;;26.56;37.80
27304;BME280;14791;52.392;13.092;2022-09-21T13:26:58;102115.33;;;26.48;37.94
27304;BME280;14791;52.392;13.092;2022-09-21T13:29:31;102124.66;;;26.34;37.91
27304;BME280;14791;52.392;13.092;2022-09-21T13:32:25;102120.12;;;26.12;38.02
27304;BME280;14791;52.392;13.092;2022-09-21T13:34:34;102122.91;;;25.86;37.80
27304;BME280;14791;52.392;13.092;2022-09-21T13:37:29;102119.77;;;25.59;38.41
27304;BME280;14791;52.392;13.092;2022-09-21T13:47:45;102120.84;;;24.54;38.66
27304;BME280;14791;52.392;13.092;2022-09-21T13:50:28;102117.81;;;24.34;38.81
27304;BME280;14791;52.392;13.092;2022-09-21T13:53:02;102114.31;;;24.28;39.23
27304;BME280;14791;52.392;13.092;2022-09-21T13:55:39;102115.54;;;24.43;40.33
27304;BME280;14791;52.392;13.092;2022-09-21T13:58:23;102115.58;;;24.75;40.47
27304;BME280;14791;52.392;13.092;2022-09-21T14:00:57;102110.40;;;25.17;40.40
27304;BME280;14791;52.392;13.092;2022-09-21T14:03:32;102105.28;;;25.62;39.97
27304;BME280;14791;52.392;13.092;2022-09-21T14:06:05;102096.85;;;26.08;39.43
27304;BME280;14791;52.392;13.092;2022-09-21T14:08:44;102100.59;;;26.49;38.89
27304;BME280;14791;52.392;13.092;2022-09-21T14:11:14;102100.02;;;26.88;38.33
27304;BME280;14791;52.392;13.092;2022-09-21T14:14:00;102106.61;;;27.32;37.89
27304;BME280;14791;52.392;13.092;2022-09-21T14:24:40;102096.96;;;28.65;36.35
27304;BME280;14791;52.392;13.092;2022-09-21T14:27:39;102089.91;;;28.89;36.03
27304;BME280;14791;52.392;13.092;2022-09-21T14:30:28;102086.99;;;29.14;35.78
27304;BME280;14791;52.392;13.092;2022-09-21T14:35:36;102094.94;;;29.65;34.91
27304;BME280;14791;52.392;13.092;2022-09-21T14:38:33;102090.25;;;29.89;34.29
27304;BME280;14791;52.392;13.092;2022-09-21T14:40:39;102087.09;;;30.07;33.76
27304;BME280;14791;52.392;13.092;2022-09-21T14:43:12;102086.56;;;30.22;33.39
27304;BME280;14791;52.392;13.092;2022-09-21T14:45:48;102081.31;;;30.31;33.12
27304;BME280;14791;52.392;13.092;2022-09-21T14:48:26;102084.26;;;30.41;32.96
27304;BME280;14791;52.392;13.092;2022-09-21T14:51:00;102084.03;;;30.46;32.55
27304;BME280;14791;52.392;13.092;2022-09-21T14:53:30;102075.41;;;30.45;32.59
27304;BME280;14791;52.392;13.092;2022-09-21T14:58:59;102074.78;;;30.43;32.23
27304;BME280;14791;52.392;13.092;2022-09-21T15:04:28;102078.11;;;30.39;32.08
27304;BME280;14791;52.392;13.092;2022-09-21T15:10:20;102077.77;;;30.23;31.73
27304;BME280;14791;52.392;13.092;2022-09-21T15:18:41;102075.80;;;30.02;31.99
27304;BME280;14791;52.392;13.092;2022-09-21T15:21:23;102074.02;;;30.05;31.68
27304;BME280;14791;52.392;13.092;2022-09-21T15:23:53;102067.76;;;30.11;31.58
27304;BME280;14791;52.392;13.092;2022-09-21T15:26:27;102068.56;;;30.16;31.39
27304;BME280;14791;52.392;13.092;2022-09-21T15:29:01;102064.88;;;30.19;31.04
27304;BME280;14791;52.392;13.092;2022-09-21T15:31:40;102068.74;;;30.14;30.97
27304;BME280;14791;52.392;13.092;2022-09-21T15:34:05;102063.48;;;30.08;31.05
27304;BME280;14791;52.392;13.092;2022-09-21T15:36:37;102063.35;;;30.06;31.19
27304;BME280;14791;52.392;13.092;2022-09-21T15:39:21;102059.93;;;30.04;31.03
27304;BME280;14791;52.392;13.092;2022-09-21T15:44:36;102059.30;;;29.98;30.92
27304;BME280;14791;52.392;13.092;2022-09-21T15:47:09;102061.29;;;29.93;30.81
27304;BME280;14791;52.392;13.092;2022-09-21T15:49:40;102062.49;;;29.90;30.73
27304;BME280;14791;52.392;13.092;2022-09-21T15:52:35;102063.94;;;29.86;30.58
27304;BME280;14791;52.392;13.092;2022-09-21T15:55:01;102062.92;;;29.83;30.51